Time;durP1;ratioP1;P1;durP2;ratioP2;P2;SDS_P1;SDS_P2;PMS_P1;PMS_P2;Temp;Humidity;BMP_temperature;BMP_pressure;BME280_temperature;BME280_humidity;BME280_pressure;Samples;Min_cycle;Max_cycle;Signal;HPM_P1;HPM_P2
2022/10/02 00:00:29;;;;;;;6.33;4.07;;;;;;;-143.84;50.83;45022.41;5030338;28;20442;-71
2022/10/02 00:03:00;;;;;;;9.00;4.00;;;;;;;-143.84;52.86;45022.41;5030282;28;20446;-72
2022/10/02 00:05:34;;;;;;;6.23;4.50;;;;;;;-143.84;54.54;45049.06;5030485;28;20465;-72
2022/10/02 00:08:05;;;;;;;11.37;4.10;;;;;;;-143.84;56.59;44999.56;5030443;28;20446;-72
2022/10/02 00:10:38;;;;;;;11.70;4.70;;;;;;;-143.84;57.79;45009.09;5030219;28;20486;-72
2022/10/02 00:13:12;;;;;;;6.57;4.47;;;;;;;-143.84;59.36;45031.94;5030022;28;20446;-72
2022/10/02 00:15:42;;;;;;;7.17;3.83;;;;;;;-143.84;60.45;45022.41;5030306;28;20442;-72
2022/10/02 00:18:13;;;;;;;5.80;3.77;;;;;;;-143.84;61.95;45037.66;5029643;28;20540;-72
2022/10/02 00:20:45;;;;;;;7.33;4.00;;;;;;;-143.84;62.52;45033.84;5029535;28;20492;-72
2022/10/02 00:23:19;;;;;;;10.03;4.40;;;;;;;-143.84;63.68;45035.75;5030015;28;20435;-72
2022/10/02 00:25:55;;;;;;;10.53;4.20;;;;;;;-143.84;64.83;45039.53;5029507;28;20443;-72
2022/10/02 00:28:28;;;;;;;9.10;3.70;;;;;;;-143.84;65.51;45052.88;5029461;28;20503;-72
2022/10/02 00:31:15;;;;;;;7.20;3.70;;;;;;;-143.84;66.45;45041.44;5029888;28;20945;-72
2022/10/02 00:33:54;;;;;;;5.30;3.57;;;;;;;-143.84;67.08;45035.75;5029999;28;20512;-72
2022/10/02 00:36:36;;;;;;;7.60;3.60;;;;;;;-143.84;68.74;45030.03;5029840;28;20442;-72
2022/10/02 00:39:17;;;;;;;11.40;4.20;;;;;;;-143.84;69.34;45041.44;5029771;28;20485;-72
2022/10/02 00:42:16;;;;;;;4.37;3.80;;;;;;;-143.84;69.64;45039.53;5029865;28;20465;-72
2022/10/02 00:44:56;;;;;;;8.57;3.53;;;;;;;-143.84;70.31;45033.84;5029885;28;20949;-72
2022/10/02 00:47:38;;;;;;;6.20;3.90;;;;;;;-143.84;70.66;45049.06;5029934;28;20454;-72
2022/10/02 00:50:26;;;;;;;4.20;3.80;;;;;;;-143.84;71.25;45043.34;5029563;28;20442;-72
2022/10/02 00:53:08;;;;;;;6.20;3.67;;;;;;;-143.84;71.63;45035.75;5028948;28;20439;-72
2022/10/02 00:55:45;;;;;;;5.03;3.30;;;;;;;-143.84;72.10;45071.91;5029020;28;20642;-72
2022/10/02 00:58:29;;;;;;;6.77;4.43;;;;;;;-143.84;72.64;45033.84;5028345;28;20540;-72
2022/10/02 01:01:02;;;;;;;5.07;3.10;;;;;;;-143.84;73.19;45047.16;5029283;28;20442;-72
2022/10/02 01:03:37;;;;;;;16.83;3.30;;;;;;;-143.84;73.08;45041.44;5028480;28;20446;-72
2022/10/02 01:06:05;;;;;;;5.37;2.50;;;;;;;-143.84;72.88;45030.03;5029377;28;20529;-72
2022/10/02 01:08:33;;;;;;;8.70;2.70;;;;;;;-143.84;73.50;45064.31;5029108;28;20442;-72
2022/10/02 01:11:01;;;;;;;5.53;3.10;;;;;;;-143.84;73.94;45049.06;5028709;28;20487;-72
2022/10/02 01:13:28;;;;;;;4.57;2.77;;;;;;;-143.84;74.25;45052.88;5028432;28;20512;-72
2022/10/02 01:15:59;;;;;;;3.03;2.50;;;;;;;-143.84;74.34;45045.25;5028957;28;20434;-72
2022/10/02 01:18:27;;;;;;;4.17;2.20;;;;;;;-143.84;74.58;45058.59;5029307;28;20482;-72
2022/10/02 01:20:59;;;;;;;2.83;2.03;;;;;;;-143.84;75.11;45081.44;5029163;28;20859;-72
2022/10/02 01:23:33;;;;;;;4.07;2.10;;;;;;;-143.84;75.38;45060.50;5029471;28;20793;-72
2022/10/02 01:26:02;;;;;;;9.47;2.57;;;;;;;-143.84;75.69;45052.88;5029089;28;20437;-72
2022/10/02 01:28:30;;;;;;;4.37;2.30;;;;;;;-143.84;76.00;45062.41;5029196;28;20451;-72
2022/10/02 01:31:04;;;;;;;3.00;1.80;;;;;;;-143.84;76.36;45068.13;5028987;28;20435;-72
2022/10/02 01:33:32;;;;;;;8.23;2.10;;;;;;;-143.84;76.71;45060.50;5028905;28;20860;-72
2022/10/02 01:36:00;;;;;;;4.93;1.60;;;;;;;-143.84;76.92;45056.69;5028955;28;20489;-72
2022/10/02 01:38:28;;;;;;;1.90;1.63;;;;;;;-143.84;77.31;45083.34;5028850;28;20540;-72
2022/10/02 01:40:55;;;;;;;6.97;1.63;;;;;;;-143.84;77.57;45060.50;5028647;28;20964;-72
2022/10/02 01:43:28;;;;;;;2.87;2.13;;;;;;;-143.84;77.88;45035.75;5028769;28;20501;-72
2022/10/02 01:46:07;;;;;;;11.20;2.10;;;;;;;-143.84;78.28;45081.44;5028754;28;20846;-72
2022/10/02 01:48:45;;;;;;;1.93;1.40;;;;;;;-143.84;78.52;45058.59;5028633;28;20454;-72
2022/10/02 01:51:53;;;;;;;1.40;1.10;;;;;;;-143.84;78.66;45066.22;5029273;28;20512;-72
2022/10/02 01:54:31;;;;;;;3.33;1.40;;;;;;;-143.84;78.60;45068.13;5006015;28;20450;-72
2022/10/02 01:57:10;;;;;;;3.53;1.80;;;;;;;-143.84;78.78;45077.63;5028891;28;20877;-72
2022/10/02 01:59:50;;;;;;;5.13;1.70;;;;;;;-143.84;79.29;45066.22;5028739;28;20577;-72
2022/10/02 02:02:26;;;;;;;3.73;1.60;;;;;;;-143.84;79.42;45039.53;5028699;28;20450;-72
2022/10/02 02:05:00;;;;;;;2.03;1.33;;;;;;;-143.84;79.78;45062.41;5028716;28;20434;-72
2022/10/02 02:07:34;;;;;;;4.17;1.90;;;;;;;-143.84;79.96;45100.47;5028661;28;20512;-72
2022/10/02 02:10:09;;;;;;;3.87;1.50;;;;;;;-143.84;79.78;45071.91;5028780;28;20519;-72
2022/10/02 02:12:43;;;;;;;4.50;1.87;;;;;;;-143.84;79.65;45068.13;5028851;28;20468;-72
2022/10/02 02:15:18;;;;;;;4.83;1.40;;;;;;;-143.84;79.64;45056.69;5030791;28;20491;-72
2022/10/02 02:17:50;;;;;;;1.60;1.50;;;;;;;-143.84;79.70;45060.50;5032645;28;20450;-72
2022/10/02 02:20:22;;;;;;;3.20;1.30;;;;;;;-143.84;79.82;45071.91;5032662;28;20454;-72
2022/10/02 02:22:53;;;;;;;3.20;1.77;;;;;;;-143.84;80.01;45064.31;5032550;28;20438;-72
2022/10/02 02:25:25;;;;;;;7.13;2.00;;;;;;;-143.84;79.99;45073.81;5032693;28;20505;-72
2022/10/02 02:27:57;;;;;;;3.40;1.60;;;;;;;-143.84;80.33;45066.22;5032561;28;20446;-72
2022/10/02 02:30:26;;;;;;;8.13;1.57;;;;;;;-143.84;80.50;45071.91;5032462;28;20508;-72
2022/10/02 02:32:59;;;;;;;2.77;1.40;;;;;;;-143.84;80.39;45070.00;5032498;28;20928;-72
2022/10/02 02:35:31;;;;;;;4.70;2.30;;;;;;;-143.84;80.46;45052.88;5032516;28;20430;-72
2022/10/02 02:38:04;;;;;;;9.67;1.60;;;;;;;-143.84;80.39;45077.63;5031805;28;20940;-73
2022/10/02 02:40:33;;;;;;;4.50;1.63;;;;;;;-143.84;80.36;45094.78;5031930;28;20442;-73
2022/10/02 02:43:06;;;;;;;7.00;2.23;;;;;;;-143.84;80.52;45052.88;5032005;28;20447;-72
2022/10/02 02:45:37;;;;;;;2.47;1.57;;;;;;;-143.84;80.39;45060.50;5031992;28;20442;-73
2022/10/02 02:48:10;;;;;;;2.83;1.83;;;;;;;-143.84;80.13;45068.13;5031776;28;20505;-73
2022/10/02 02:50:42;;;;;;;5.03;1.97;;;;;;;-143.84;79.98;45090.97;5031904;28;21006;-73
2022/10/02 02:53:14;;;;;;;3.10;1.73;;;;;;;-143.84;79.85;45094.78;5031664;28;20496;-73
2022/10/02 02:55:45;;;;;;;1.60;1.50;;;;;;;-143.84;79.73;45062.41;5031706;28;20440;-73
2022/10/02 02:58:18;;;;;;;2.13;1.67;;;;;;;-143.84;79.76;45081.44;5031931;28;20438;-73
2022/10/02 03:00:46;;;;;;;1.77;1.50;;;;;;;-143.84;79.48;45073.81;5031527;28;20450;-72
2022/10/02 03:03:14;;;;;;;2.43;1.50;;;;;;;-143.84;79.13;45041.44;5031372;28;20493;-73
2022/10/02 03:05:46;;;;;;;5.90;2.40;;;;;;;-143.84;79.14;45062.41;5031315;28;20438;-73
2022/10/02 03:08:26;;;;;;;2.57;1.60;;;;;;;-143.84;79.08;45079.53;5031406;28;20450;-72
2022/10/02 03:11:05;;;;;;;4.90;1.67;;;;;;;-143.84;79.37;45062.41;5031265;28;20486;-72
2022/10/02 03:13:45;;;;;;;3.87;1.60;;;;;;;-143.84;79.58;45068.13;5013781;28;20830;-73
2022/10/02 03:16:26;;;;;;;2.97;1.90;;;;;;;-143.84;80.24;45079.53;5031416;28;20956;-73
2022/10/02 03:19:10;;;;;;;1.90;1.70;;;;;;;-143.84;80.42;45083.34;5031119;28;20478;-72
2022/10/02 03:21:45;;;;;;;2.03;1.50;;;;;;;-143.84;81.00;45083.34;5031055;28;20442;-73
2022/10/02 03:24:21;;;;;;;9.80;1.70;;;;;;;-143.84;81.49;45092.88;5031124;28;20451;-73
2022/10/02 03:26:55;;;;;;;6.23;2.03;;;;;;;-143.84;81.97;45077.63;5030046;28;20441;-73
2022/10/02 03:29:28;;;;;;;14.07;2.50;;;;;;;-143.84;82.70;45089.06;5031231;28;21012;-73
2022/10/02 03:31:58;;;;;;;4.00;1.90;;;;;;;-143.84;82.84;45100.47;5031159;28;20454;-73
2022/10/02 03:34:26;;;;;;;6.70;2.10;;;;;;;-143.84;83.21;45098.56;5031038;28;20963;-73
2022/10/02 03:36:54;;;;;;;2.20;1.70;;;;;;;-143.84;83.07;45075.72;5031008;28;20446;-73
2022/10/02 03:39:21;;;;;;;4.90;1.67;;;;;;;-143.84;82.88;45083.34;5030484;28;20624;-72
2022/10/02 03:41:48;;;;;;;3.60;1.67;;;;;;;-143.84;83.04;45079.53;5030504;28;20953;-73
2022/10/02 03:44:16;;;;;;;8.90;2.50;;;;;;;-143.84;83.15;45058.59;5030214;28;20513;-73
2022/10/02 03:46:43;;;;;;;4.10;1.73;;;;;;;-143.84;82.98;45064.31;5030443;28;20792;-73
2022/10/02 03:49:12;;;;;;;2.10;1.67;;;;;;;-143.84;82.84;45085.25;5030735;28;20434;-73
2022/10/02 03:51:39;;;;;;;3.63;1.97;;;;;;;-143.84;82.91;45058.59;5030601;28;20450;-73
2022/10/02 03:54:15;;;;;;;2.97;2.10;;;;;;;-143.84;83.01;45090.97;5030629;28;20477;-73
2022/10/02 03:56:50;;;;;;;3.83;1.87;;;;;;;-143.84;82.65;45085.25;5030725;28;20473;-73
2022/10/02 03:59:30;;;;;;;1.73;1.63;;;;;;;-143.84;82.70;45077.63;5030616;28;20518;-73
2022/10/02 04:02:02;;;;;;;4.13;2.70;;;;;;;-143.84;83.58;45071.91;5030267;28;20505;-73
2022/10/02 04:04:44;;;;;;;4.77;2.53;;;;;;;-143.84;84.46;45075.72;5030366;28;20941;-73
2022/10/02 04:07:18;;;;;;;3.53;2.90;;;;;;;-143.84;86.18;45071.91;5030336;28;20442;-73
2022/10/02 04:09:51;;;;;;;3.07;2.77;;;;;;;-143.84;87.46;45077.63;5030435;28;20576;-72
2022/10/02 04:12:25;;;;;;;9.07;4.20;;;;;;;-143.84;88.53;45068.13;5010250;28;20439;-73
2022/10/02 04:14:57;;;;;;;8.60;4.80;;;;;;;-143.84;89.34;45094.78;5010390;28;20447;-73
2022/10/02 04:17:30;;;;;;;8.53;4.47;;;;;;;-143.84;89.88;45087.16;5010348;28;20455;-72
2022/10/02 04:20:04;;;;;;;7.60;4.40;;;;;;;-143.84;90.11;45068.13;5010108;28;20545;-73
2022/10/02 04:22:35;;;;;;;8.90;3.90;;;;;;;-143.84;90.46;45098.56;5010568;28;20459;-73
2022/10/02 04:25:07;;;;;;;5.93;3.17;;;;;;;-143.84;90.72;45087.16;5010154;28;20509;-73
2022/10/02 04:27:38;;;;;;;6.53;3.90;;;;;;;-143.84;90.75;45077.63;5010267;28;20522;-72
2022/10/02 04:30:08;;;;;;;5.73;3.10;;;;;;;-143.84;90.96;45092.88;5010422;28;20451;-73
2022/10/02 04:32:36;;;;;;;4.90;3.00;;;;;;;-143.84;90.91;45062.41;5009998;28;20485;-72
2022/10/02 04:35:14;;;;;;;3.40;2.30;;;;;;;-143.84;90.88;45056.69;5009901;28;20459;-73
2022/10/02 04:38:01;;;;;;;3.00;1.80;;;;;;;-143.84;90.84;45090.97;5009841;28;20832;-73
2022/10/02 04:40:49;;;;;;;2.27;1.63;;;;;;;-143.84;90.41;45083.34;5009457;28;21012;-72
2022/10/02 04:43:34;;;;;;;3.63;2.17;;;;;;;-143.84;90.10;45085.25;5009373;28;20968;-72
2022/10/02 04:46:19;;;;;;;7.03;2.50;;;;;;;-143.84;89.87;45085.25;5009378;28;20447;-72
2022/10/02 04:49:22;;;;;;;6.33;2.50;;;;;;;-143.84;89.92;45098.56;5009106;28;20954;-73
2022/10/02 04:52:06;;;;;;;5.27;2.27;;;;;;;-143.84;89.75;45090.97;4999713;28;20456;-73
2022/10/02 04:54:57;;;;;;;3.70;2.73;;;;;;;-143.84;89.56;45083.34;4990419;28;20448;-73
2022/10/02 04:57:45;;;;;;;4.87;2.80;;;;;;;-143.84;89.68;45075.72;4987955;28;20463;-73
2022/10/02 05:00:16;;;;;;;4.37;3.03;;;;;;;-143.84;89.64;45106.19;4990046;28;20574;-73
2022/10/02 05:03:02;;;;;;;6.43;2.97;;;;;;;-143.84;89.74;45092.88;4989870;28;20512;-73
2022/10/02 05:05:54;;;;;;;3.63;2.93;;;;;;;-143.84;89.75;45089.06;4995574;28;20514;-72
2022/10/02 05:08:37;;;;;;;3.57;3.20;;;;;;;-143.84;89.53;45081.44;5009250;28;20435;-72
2022/10/02 05:11:21;;;;;;;4.93;3.10;;;;;;;-143.84;89.10;45077.63;5019587;28;20505;-73
2022/10/02 05:14:05;;;;;;;8.10;3.50;;;;;;;-143.84;89.11;45108.09;5029113;28;20437;-72
2022/10/02 05:16:50;;;;;;;5.10;2.80;;;;;;;-143.84;88.73;45083.34;5028530;28;20435;-73
2022/10/02 05:19:35;;;;;;;8.23;3.13;;;;;;;-143.84;88.39;45085.25;5028918;28;20528;-70
2022/10/02 05:22:36;;;;;;;5.43;2.80;;;;;;;-143.84;88.02;45047.16;5029017;28;20470;-70
2022/10/02 05:25:23;;;;;;;4.07;3.13;;;;;;;-143.84;87.96;45056.69;5029103;28;21026;-74
2022/10/02 05:28:07;;;;;;;3.77;2.87;;;;;;;-143.84;88.02;45070.00;5029079;28;20520;-71
2022/10/02 05:30:45;;;;;;;5.87;3.07;;;;;;;-143.84;87.93;45068.13;5028520;28;20528;-73
2022/10/02 05:33:36;;;;;;;5.90;3.33;;;;;;;-143.84;87.73;45081.44;5028777;28;20446;-73
2022/10/02 05:36:18;;;;;;;6.17;3.07;;;;;;;-143.84;88.07;45079.53;5028609;28;20446;-73
2022/10/02 05:39:04;;;;;;;7.63;3.40;;;;;;;-143.84;88.12;45079.53;5028711;28;20442;-73
2022/10/02 05:41:43;;;;;;;3.33;3.10;;;;;;;-143.84;88.12;45075.72;5028712;28;20443;-72
2022/10/02 05:44:16;;;;;;;6.33;3.70;;;;;;;-143.84;88.41;45087.16;5028609;28;20434;-72
2022/10/02 05:46:50;;;;;;;8.90;2.90;;;;;;;-143.84;88.36;45083.34;5028814;28;20497;-72
2022/10/02 05:49:20;;;;;;;5.17;3.77;;;;;;;-143.84;87.85;45094.78;5028051;28;20496;-72
2022/10/02 05:51:55;;;;;;;6.17;4.20;;;;;;;-143.84;87.38;45098.56;5028860;28;20430;-73
2022/10/02 05:54:34;;;;;;;7.43;3.20;;;;;;;-143.84;87.87;45087.16;5028473;28;20449;-73
2022/10/02 05:57:10;;;;;;;8.20;2.53;;;;;;;-143.84;86.79;45089.06;5028975;28;20438;-72
2022/10/02 05:59:45;;;;;;;12.33;3.53;;;;;;;-143.84;86.81;45090.97;5028165;28;21199;-72
2022/10/02 06:02:20;;;;;;;4.43;3.30;;;;;;;-143.84;86.93;45106.19;5029025;28;20959;-72
2022/10/02 06:04:58;;;;;;;3.90;3.17;;;;;;;-143.84;86.81;45089.06;5028624;28;20916;-72
2022/10/02 06:07:28;;;;;;;2.43;2.23;;;;;;;-143.84;86.32;45106.19;5028450;28;20529;-72
2022/10/02 06:09:59;;;;;;;2.80;2.53;;;;;;;-143.84;85.45;45090.97;5028259;28;20508;-72
2022/10/02 06:12:33;;;;;;;3.73;2.63;;;;;;;-143.84;85.56;45089.06;5010527;28;20834;-72
2022/10/02 06:15:06;;;;;;;3.97;2.40;;;;;;;-143.84;84.70;45094.78;5008140;28;20996;-73
2022/10/02 06:17:40;;;;;;;3.33;2.60;;;;;;;-143.84;83.86;45081.44;5009035;28;20490;-72
2022/10/02 06:20:18;;;;;;;6.73;2.40;;;;;;;-143.84;83.42;45098.56;5006908;28;20515;-72
2022/10/02 06:22:52;;;;;;;2.90;1.97;;;;;;;-143.84;83.46;45075.72;5018985;28;20466;-72
2022/10/02 06:25:25;;;;;;;16.33;2.90;;;;;;;-143.84;83.49;45108.09;5011279;28;20508;-72
2022/10/02 06:27:59;;;;;;;6.60;2.00;;;;;;;-143.84;83.32;45098.56;5007259;28;20442;-72
2022/10/02 06:30:30;;;;;;;3.00;1.77;;;;;;;-143.84;83.60;45087.16;5011737;28;20466;-72
2022/10/02 06:33:03;;;;;;;2.40;2.20;;;;;;;-143.84;83.04;45106.19;5005783;28;20562;-72
2022/10/02 06:35:54;;;;;;;4.03;1.90;;;;;;;-143.84;82.89;45094.78;5008120;28;20981;-72
2022/10/02 06:38:35;;;;;;;3.07;2.03;;;;;;;-143.84;82.70;45104.28;5008552;28;20858;-72
2022/10/02 06:41:09;;;;;;;9.23;2.40;;;;;;;-143.84;82.72;45073.81;4990765;28;20521;-73
2022/10/02 06:44:04;;;;;;;5.70;2.03;;;;;;;-143.84;82.84;45081.44;5013639;28;20458;-72
2022/10/02 06:46:42;;;;;;;2.50;2.23;;;;;;;-143.84;82.67;45087.16;5011226;28;20553;-72
2022/10/02 06:49:16;;;;;;;6.40;2.37;;;;;;;-143.84;82.18;45087.16;5008442;28;20443;-72
2022/10/02 06:51:57;;;;;;;3.90;2.90;;;;;;;-143.84;82.65;45104.28;5008321;28;20443;-72
2022/10/02 06:54:46;;;;;;;6.13;2.73;;;;;;;-143.84;82.80;45071.91;5008101;28;20530;-72
2022/10/02 06:57:28;;;;;;;3.00;2.30;;;;;;;-143.84;83.02;45100.47;5008315;28;20866;-72
2022/10/02 07:00:10;;;;;;;2.70;2.10;;;;;;;-143.84;82.82;45090.97;5007360;28;20486;-72
2022/10/02 07:02:59;;;;;;;4.00;2.67;;;;;;;-143.84;82.93;45092.88;5013131;28;20521;-72
2022/10/02 07:05:53;;;;;;;2.10;2.00;;;;;;;-143.84;82.58;45096.66;5013206;28;20527;-72
2022/10/02 07:08:30;;;;;;;2.87;2.03;;;;;;;-143.84;81.21;45111.91;5009724;28;20456;-72
2022/10/02 07:11:09;;;;;;;5.90;2.47;;;;;;;-143.84;81.30;45079.53;5013369;28;20500;-72
2022/10/02 07:13:57;;;;;;;3.33;2.60;;;;;;;-143.84;81.26;45102.38;5009116;28;20447;-72
2022/10/02 07:16:40;;;;;;;8.27;2.37;;;;;;;-143.84;81.35;45089.06;5014252;28;20448;-72
2022/10/02 07:19:39;;;;;;;5.80;2.70;;;;;;;-143.84;81.24;45092.88;5013157;28;20455;-72
2022/10/02 07:22:25;;;;;;;4.40;2.40;;;;;;;-143.84;80.63;45113.81;5010819;28;20443;-72
2022/10/02 07:25:14;;;;;;;5.10;2.30;;;;;;;-143.84;80.68;45092.88;5015953;28;20504;-72
2022/10/02 07:27:48;;;;;;;2.70;2.50;;;;;;;-143.84;80.10;45106.19;5014401;28;20529;-72
2022/10/02 07:30:18;;;;;;;5.60;2.63;;;;;;;-143.84;79.64;45092.88;5010447;28;20871;-72
2022/10/02 07:32:56;;;;;;;2.77;2.57;;;;;;;-143.84;79.56;45092.88;5011583;28;20448;-72
2022/10/02 07:35:35;;;;;;;2.70;2.50;;;;;;;-143.84;78.86;45085.25;5011941;28;20462;-72
2022/10/02 07:38:20;;;;;;;4.00;3.00;;;;;;;-143.84;78.46;45121.44;5010964;28;20482;-72
2022/10/02 07:40:58;;;;;;;3.33;3.03;;;;;;;-143.84;78.29;45081.44;5010448;28;20929;-72
2022/10/02 07:43:49;;;;;;;3.70;3.27;;;;;;;-143.84;77.53;45077.63;5010317;28;21067;-72
2022/10/02 07:46:22;;;;;;;5.13;2.60;;;;;;;-143.84;76.51;45079.53;5005007;28;20486;-72
2022/10/02 07:49:03;;;;;;;4.83;2.73;;;;;;;-143.84;76.09;45071.91;5011218;28;20486;-73
2022/10/02 07:51:46;;;;;;;2.43;2.23;;;;;;;-143.84;74.93;45071.91;5010323;28;20451;-72
2022/10/02 07:54:29;;;;;;;3.77;3.47;;;;;;;-143.84;73.73;45049.06;5014525;28;21151;-72
2022/10/02 07:57:02;;;;;;;3.57;3.10;;;;;;;-143.84;72.59;45096.66;5010352;28;20454;-72
2022/10/02 07:59:32;;;;;;;2.97;2.77;;;;;;;-143.84;72.06;45081.44;5009837;28;20968;-72
2022/10/02 08:02:00;;;;;;;2.77;2.57;;;;;;;-143.84;70.61;45096.66;5013735;28;20459;-72
2022/10/02 08:04:31;;;;;;;3.40;3.10;;;;;;;-143.84;70.68;45064.31;5011644;28;20455;-72
2022/10/02 08:07:01;;;;;;;5.77;3.23;;;;;;;-143.84;70.77;45083.34;5011820;28;20460;-72
2022/10/02 08:09:34;;;;;;;3.47;3.00;;;;;;;-143.84;70.03;45083.34;5010013;28;20455;-72
2022/10/02 08:12:09;;;;;;;5.10;3.30;;;;;;;-143.84;69.67;45068.13;5009204;28;20495;-72
2022/10/02 08:14:41;;;;;;;11.90;3.00;;;;;;;-143.84;68.24;45083.34;5011847;28;20451;-72
2022/10/02 08:17:19;;;;;;;3.33;3.13;;;;;;;-143.84;68.23;45071.91;5011028;28;20452;-72
2022/10/02 08:19:51;;;;;;;11.87;7.93;;;;;;;-143.84;67.36;45060.50;5009985;28;20498;-72
2022/10/02 08:22:25;;;;;;;14.40;8.37;;;;;;;-143.84;66.58;45071.91;5010047;28;20459;-72
2022/10/02 08:24:55;;;;;;;11.63;6.10;;;;;;;-143.84;66.47;45071.91;5013653;28;20821;-72
2022/10/02 08:27:28;;;;;;;15.63;7.50;;;;;;;-143.84;66.15;45077.63;5009817;28;20461;-72
2022/10/02 08:30:01;;;;;;;9.50;6.97;;;;;;;-143.84;66.58;45073.81;5014551;28;20447;-72
2022/10/02 08:32:31;;;;;;;11.13;5.80;;;;;;;-143.84;65.60;45066.22;5009750;28;20456;-72
2022/10/02 08:35:01;;;;;;;14.33;7.43;;;;;;;-143.84;66.24;45089.06;5010016;28;21371;-72
2022/10/02 08:37:38;;;;;;;6.40;5.80;;;;;;;-143.84;66.28;45045.25;5009576;28;20471;-72
2022/10/02 08:40:45;;;;;;;9.50;6.80;;;;;;;-143.84;65.63;45068.13;5009244;28;20548;-71
2022/10/02 08:43:47;;;;;;;6.60;6.07;;;;;;;-143.84;66.12;45050.97;4983698;28;20451;-72
2022/10/02 08:46:44;;;;;;;4.57;3.80;;;;;;;-143.84;63.34;45058.59;5013761;28;20509;-72
2022/10/02 08:50:04;;;;;;;3.07;2.10;;;;;;;-143.84;58.46;45064.31;5001402;28;20455;-71
2022/10/02 08:53:15;;;;;;;2.03;1.93;;;;;;;-143.84;58.67;45056.69;4995072;28;20457;-73
2022/10/02 08:56:06;;;;;;;2.27;2.07;;;;;;;-143.84;58.14;45056.69;5009916;28;20454;-72
2022/10/02 08:59:12;;;;;;;3.03;2.37;;;;;;;-143.84;57.31;45049.06;5009059;28;20482;-72
2022/10/02 09:02:18;;;;;;;2.10;2.00;;;;;;;-143.84;57.33;45064.31;5008908;28;20522;-72
2022/10/02 09:05:41;;;;;;;4.23;2.10;;;;;;;-143.84;57.56;45064.31;5007513;28;20525;-72
2022/10/02 09:08:41;;;;;;;2.57;2.00;;;;;;;-143.84;57.78;45045.25;4918607;29;20595;-71
2022/10/02 09:11:50;;;;;;;2.67;2.47;;;;;;;-143.84;58.33;45068.13;5015405;28;21318;-71
2022/10/02 09:14:45;;;;;;;9.83;2.20;;;;;;;-143.84;58.15;45039.53;5019021;28;21369;-71
2022/10/02 09:17:44;;;;;;;2.23;2.13;;;;;;;-143.84;59.08;45077.63;5000577;28;20472;-71
2022/10/02 09:20:44;;;;;;;5.93;2.33;;;;;;;-143.84;58.79;45068.13;5005121;28;20494;-71
2022/10/02 09:23:44;;;;;;;3.63;2.10;;;;;;;-143.84;59.33;45079.53;5008876;28;20475;-71
2022/10/02 09:26:19;;;;;;;3.60;2.40;;;;;;;-143.84;59.79;45037.66;4981157;28;21375;-71
2022/10/02 09:29:33;;;;;;;4.83;2.23;;;;;;;-143.84;60.32;45083.34;5008277;28;20463;-71
2022/10/02 09:32:33;;;;;;;2.43;2.23;;;;;;;-143.84;59.14;45016.69;4973550;28;20474;-71
2022/10/02 09:35:39;;;;;;;2.07;1.97;;;;;;;-143.84;56.83;45045.25;5012964;28;20456;-71
2022/10/02 09:38:30;;;;;;;4.13;1.90;;;;;;;-143.84;56.57;45064.31;5008736;28;20841;-71
2022/10/02 09:41:24;;;;;;;4.73;2.20;;;;;;;-143.84;54.54;45030.03;5012999;28;20919;-71
2022/10/02 09:44:12;;;;;;;2.23;1.70;;;;;;;-143.84;53.15;45049.06;5008110;28;20470;-71
2022/10/02 09:47:22;;;;;;;1.93;1.83;;;;;;;-143.84;51.74;45041.44;5008619;28;20447;-71
2022/10/02 09:50:28;;;;;;;4.83;2.50;;;;;;;-143.84;50.47;45047.16;4970438;28;21132;-71
2022/10/02 09:53:31;;;;;;;4.50;1.90;;;;;;;-143.84;48.87;45012.88;5015238;28;20450;-71
2022/10/02 09:56:34;;;;;;;3.27;2.10;;;;;;;-143.84;47.00;45005.28;5011086;28;20451;-71
2022/10/02 09:59:41;;;;;;;3.00;2.03;;;;;;;-143.84;45.18;45014.78;5012142;28;20505;-71
2022/10/02 10:02:34;;;;;;;10.40;2.30;;;;;;;-143.84;44.04;45010.97;5011552;28;20475;-71
2022/10/02 10:05:47;;;;;;;3.77;1.73;;;;;;;-143.84;43.97;45014.78;4967100;28;20981;-71
2022/10/02 10:08:47;;;;;;;4.20;1.63;;;;;;;-143.84;43.25;45026.22;4912122;29;20455;-72
2022/10/02 10:11:46;;;;;;;3.73;1.80;;;;;;;-143.84;43.13;45022.41;5007996;28;20487;-71
2022/10/02 10:14:44;;;;;;;1.70;1.60;;;;;;;-143.84;42.86;45026.22;5009049;28;20459;-71
2022/10/02 10:17:35;;;;;;;8.93;1.57;;;;;;;-143.84;42.47;45047.16;5009291;28;20545;-71
2022/10/02 10:20:50;;;;;;;2.13;1.93;;;;;;;-143.84;42.90;45028.13;5007537;28;20980;-71
2022/10/02 10:23:53;;;;;;;1.87;1.77;;;;;;;-143.84;43.41;45035.75;4926951;29;20465;-71
2022/10/02 10:26:42;;;;;;;1.43;1.33;;;;;;;-143.84;45.42;45041.44;4925410;29;20456;-71
2022/10/02 10:29:31;;;;;;;4.97;1.50;;;;;;;-143.84;43.68;45037.66;5006471;28;20525;-71
2022/10/02 10:32:37;;;;;;;4.40;1.77;;;;;;;-143.84;43.05;45012.88;5008900;28;20537;-71
2022/10/02 10:35:25;;;;;;;5.70;1.77;;;;;;;-143.84;42.99;45041.44;4982633;28;20447;-71
2022/10/02 10:41:11;;;;;;;2.03;1.33;;;;;;;-143.84;40.43;45030.03;5015622;28;20868;-71
2022/10/02 10:44:04;;;;;;;1.30;1.20;;;;;;;-143.84;40.54;45020.50;5011888;28;20825;-72
2022/10/02 10:46:49;;;;;;;4.83;1.23;;;;;;;-143.84;39.29;44990.03;5014812;28;20435;-72
2022/10/02 10:49:46;;;;;;;3.20;1.27;;;;;;;-143.84;40.07;45007.19;5013216;28;20451;-72
2022/10/02 10:52:24;;;;;;;9.43;1.40;;;;;;;-143.84;40.51;45001.47;5013881;28;20521;-72
2022/10/02 10:55:00;;;;;;;2.30;2.10;;;;;;;-143.84;40.00;45024.31;5011206;28;20439;-72
2022/10/02 10:57:39;;;;;;;1.37;1.27;;;;;;;-143.84;40.38;45014.78;5011851;28;20508;-73
2022/10/02 11:00:20;;;;;;;1.93;1.40;;;;;;;-143.84;40.70;45045.25;5010898;28;20530;-73
2022/10/02 11:03:28;;;;;;;1.83;1.60;;;;;;;-143.84;40.35;45031.94;5011097;28;20451;-73
2022/10/02 11:06:40;;;;;;;1.00;0.90;;;;;;;-143.84;39.92;45026.22;5012591;28;20513;-72
2022/10/02 11:09:51;;;;;;;1.70;1.10;;;;;;;-143.84;40.33;45018.59;5010756;28;20455;-73
2022/10/02 11:12:57;;;;;;;2.13;1.20;;;;;;;-143.84;40.30;45014.78;4987168;28;20977;-73
2022/10/02 11:15:44;;;;;;;3.43;1.80;;;;;;;-143.84;39.98;45035.75;4991702;28;20547;-73
2022/10/02 11:18:50;;;;;;;1.50;1.13;;;;;;;-143.84;39.43;45009.09;4992278;28;21229;-73
2022/10/02 11:21:34;;;;;;;2.70;1.30;;;;;;;-143.84;39.94;45016.69;4962569;28;20869;-73
2022/10/02 11:24:32;;;;;;;2.80;1.50;;;;;;;-143.84;40.35;45009.09;4993735;28;20820;-73
2022/10/02 11:27:25;;;;;;;1.60;1.20;;;;;;;-143.84;40.54;45005.28;4981628;28;20551;-73
2022/10/02 11:30:14;;;;;;;2.80;1.43;;;;;;;-143.84;39.30;45003.38;4994703;28;20901;-72
2022/10/02 11:33:25;;;;;;;7.77;1.50;;;;;;;-143.84;39.09;44991.94;4990954;28;20491;-73
2022/10/02 11:36:19;;;;;;;5.33;1.63;;;;;;;-143.84;39.66;45001.47;4930338;29;20540;-72
2022/10/02 11:39:14;;;;;;;1.63;1.17;;;;;;;-143.84;41.59;45014.78;4991327;28;20466;-71
2022/10/02 11:42:14;;;;;;;4.33;1.43;;;;;;;-143.84;40.79;45024.31;4993736;28;20492;-70
2022/10/02 11:45:16;;;;;;;6.77;4.77;;;;;;;-143.84;40.38;45050.97;4987883;28;20496;-72
2022/10/02 11:48:12;;;;;;;2.63;1.30;;;;;;;-143.84;41.33;45005.28;4991829;28;20582;-71
2022/10/02 11:51:09;;;;;;;2.03;1.47;;;;;;;-143.84;41.32;44995.75;4959919;28;20440;-71
2022/10/02 11:54:17;;;;;;;1.33;1.10;;;;;;;-143.84;40.37;45016.69;4990938;28;20437;-71
2022/10/02 11:57:04;;;;;;;1.50;1.00;;;;;;;-143.84;40.21;45020.50;4978832;28;20452;-71
2022/10/02 12:00:03;;;;;;;3.13;1.30;;;;;;;-143.84;41.41;45022.41;4991775;28;20464;-71
2022/10/02 12:02:37;;;;;;;2.43;1.10;;;;;;;-143.84;40.12;45031.94;4986472;28;20480;-71
2022/10/02 12:05:22;;;;;;;1.33;1.20;;;;;;;-143.84;40.66;45009.09;4991567;28;20439;-74
2022/10/02 12:08:00;;;;;;;3.17;1.30;;;;;;;-143.84;40.49;45024.31;4991475;28;20539;-75
2022/10/02 12:10:41;;;;;;;2.87;1.13;;;;;;;-143.84;40.97;45014.78;4996738;28;20506;-75
2022/10/02 12:13:30;;;;;;;3.60;1.07;;;;;;;-143.84;40.43;45043.34;5010385;28;20443;-74
2022/10/02 12:16:06;;;;;;;8.93;1.67;;;;;;;-143.84;41.42;45030.03;5011735;28;20447;-74
2022/10/02 12:18:50;;;;;;;1.40;1.10;;;;;;;-143.84;40.71;45030.03;5015657;28;20454;-74
2022/10/02 12:27:23;;;;;;;4.00;1.07;;;;;;;-143.84;40.68;45030.03;5009866;28;20439;-74
2022/10/02 12:30:03;;;;;;;1.67;0.80;;;;;;;-143.84;41.27;45016.69;5010719;28;20454;-74
2022/10/02 12:32:59;;;;;;;1.90;1.23;;;;;;;-143.84;41.48;45031.94;5009406;28;20447;-74